Time;durP1;ratioP1;P1;durP2;ratioP2;P2;SDS_P1;SDS_P2;PMS_P1;PMS_P2;Temp;Humidity;BMP_temperature;BMP_pressure;BME280_temperature;BME280_humidity;BME280_pressure;Samples;Min_cycle;Max_cycle;Signal;HPM_P1;HPM_P2
2021/03/28 00:02:15;;;;;;;8.35;2.72;;;6.10;99.90;;;;;;5013785;28;20507;-72
2021/03/28 00:04:58;;;;;;;5.13;2.53;;;6.00;99.90;;;;;;5013550;28;20156;-72
2021/03/28 00:07:47;;;;;;;8.35;2.90;;;6.00;99.90;;;;;;5032704;28;20379;-72
2021/03/28 00:10:54;;;;;;;9.27;2.90;;;6.00;99.90;;;;;;5032631;28;20033;-73
2021/03/28 00:13:30;;;;;;;9.35;3.22;;;5.90;99.90;;;;;;4954677;29;20059;-74
2021/03/28 00:15:55;;;;;;;7.22;3.15;;;5.80;99.90;;;;;;4955056;29;20054;-72
2021/03/28 00:18:55;;;;;;;6.45;3.00;;;5.60;99.90;;;;;;4999645;28;20077;-73
2021/03/28 00:21:27;;;;;;;7.55;2.75;;;5.50;99.90;;;;;;5017631;28;20033;-71
2021/03/28 00:24:08;;;;;;;9.48;2.95;;;5.30;99.90;;;;;;5037430;28;20030;-72
2021/03/28 00:26:41;;;;;;;8.38;2.70;;;5.30;99.90;;;;;;5031246;28;20036;-73
2021/03/28 00:29:23;;;;;;;7.47;3.65;;;5.20;99.90;;;;;;5044970;28;20043;-74
2021/03/28 00:32:04;;;;;;;7.18;2.78;;;5.20;99.90;;;;;;5014921;28;20071;-71
2021/03/28 00:34:32;;;;;;;10.75;2.92;;;5.20;99.90;;;;;;5031554;28;20484;-72
2021/03/28 00:37:09;;;;;;;9.90;3.00;;;5.10;99.90;;;;;;5014318;28;20091;-72
2021/03/28 00:39:47;;;;;;;8.10;2.58;;;5.00;99.90;;;;;;5032401;28;20491;-72
2021/03/28 00:42:21;;;;;;;7.88;2.65;;;4.90;99.90;;;;;;5031981;28;20025;-73
2021/03/28 00:44:54;;;;;;;6.05;2.78;;;4.80;99.90;;;;;;5032717;28;20689;-73
2021/03/28 00:47:27;;;;;;;6.97;3.10;;;4.80;99.90;;;;;;5032724;28;20036;-72
2021/03/28 00:50:20;;;;;;;7.40;2.80;;;4.80;99.90;;;;;;5031224;28;20036;-73
2021/03/28 00:53:01;;;;;;;8.30;3.20;;;4.80;99.90;;;;;;5031328;28;20029;-72
2021/03/28 00:55:29;;;;;;;7.47;3.05;;;4.70;99.90;;;;;;5031861;28;20067;-72
2021/03/28 00:58:12;;;;;;;4.15;2.55;;;4.60;99.90;;;;;;5013247;28;20073;-73
2021/03/28 01:00:38;;;;;;;8.27;3.53;;;4.50;99.90;;;;;;5031837;28;20036;-71
2021/03/28 01:03:32;;;;;;;12.07;3.95;;;4.40;99.90;;;;;;5031347;28;20396;-73
2021/03/28 01:06:02;;;;;;;6.85;3.03;;;4.40;99.90;;;;;;5014081;28;20021;-73
2021/03/28 01:09:02;;;;;;;9.65;2.60;;;4.40;99.90;;;;;;5031012;28;20127;-72
2021/03/28 01:11:56;;;;;;;7.13;2.53;;;4.30;99.90;;;;;;5031469;28;20049;-73
2021/03/28 01:14:46;;;;;;;6.82;2.83;;;4.20;99.90;;;;;;5030766;28;20026;-71
2021/03/28 01:17:14;;;;;;;8.35;3.22;;;4.20;99.90;;;;;;5031649;28;20033;-71
2021/03/28 01:20:17;;;;;;;7.03;2.80;;;4.20;99.90;;;;;;5032050;28;20431;-73
2021/03/28 01:22:49;;;;;;;8.13;2.75;;;4.10;99.90;;;;;;5033858;28;20025;-73
2021/03/28 01:25:27;;;;;;;8.40;2.85;;;4.00;99.90;;;;;;5033896;28;20079;-73
2021/03/28 01:27:59;;;;;;;10.30;3.13;;;4.00;99.90;;;;;;5032738;28;20032;-72
2021/03/28 01:30:35;;;;;;;;;;;3.90;99.90;;;;;;5034228;28;20480;-73
2021/03/28 01:33:08;;;;;;;8.20;2.70;;;3.90;99.90;;;;;;5033250;28;19912;-73
2021/03/28 01:35:57;;;;;;;9.30;3.53;;;3.90;99.90;;;;;;5032860;28;20577;-72
2021/03/28 01:38:32;;;;;;;5.18;2.70;;;3.90;99.90;;;;;;5031740;28;20025;-73
2021/03/28 01:41:06;;;;;;;5.38;3.00;;;3.90;99.90;;;;;;5034066;28;20041;-72
2021/03/28 01:43:38;;;;;;;11.00;3.80;;;3.80;99.90;;;;;;5033899;28;20021;-73
2021/03/28 01:46:41;;;;;;;8.32;3.75;;;3.80;99.90;;;;;;5034915;28;20021;-73
2021/03/28 01:49:26;;;;;;;8.75;2.90;;;3.80;99.90;;;;;;5031224;28;20033;-73
2021/03/28 01:52:13;;;;;;;7.72;2.72;;;3.70;99.90;;;;;;5031123;28;20022;-73
2021/03/28 01:54:57;;;;;;;11.88;3.22;;;3.60;99.90;;;;;;5030460;28;20026;-73
2021/03/28 01:57:45;;;;;;;8.45;3.33;;;3.50;99.90;;;;;;5031109;28;20029;-73
2021/03/28 02:00:43;;;;;;;6.65;2.88;;;3.50;99.90;;;;;;5013306;28;20075;-73
2021/03/28 02:03:22;;;;;;;9.90;3.55;;;3.50;99.90;;;;;;5030548;28;20077;-72
2021/03/28 02:06:34;;;;;;;13.10;3.60;;;3.40;99.90;;;;;;5030956;28;20504;-72
2021/03/28 02:09:28;;;;;;;5.43;2.83;;;3.30;99.90;;;;;;5001340;28;20557;-72
2021/03/28 02:12:12;;;;;;;10.80;3.40;;;3.30;99.90;;;;;;5034509;28;20430;-73
2021/03/28 02:14:48;;;;;;;12.90;3.38;;;3.30;99.90;;;;;;5034082;28;20503;-74
2021/03/28 02:17:55;;;;;;;10.77;3.53;;;3.30;99.90;;;;;;5034658;28;20036;-72
2021/03/28 02:20:42;;;;;;;6.65;3.17;;;3.30;99.90;;;;;;5016402;28;20040;-73
2021/03/28 02:23:19;;;;;;;4.65;3.15;;;3.30;99.90;;;;;;5033985;28;20097;-74
2021/03/28 02:26:04;;;;;;;13.40;3.42;;;3.10;99.90;;;;;;5034648;28;20474;-73
2021/03/28 02:28:59;;;;;;;10.88;3.75;;;3.10;99.90;;;;;;5034393;28;20472;-73
2021/03/28 02:31:57;;;;;;;10.57;4.38;;;3.20;99.90;;;;;;5034546;28;20028;-74
2021/03/28 02:34:42;;;;;;;19.60;5.22;;;3.10;99.90;;;;;;4993003;28;20041;-74
2021/03/28 02:37:24;;;;;;;9.73;4.32;;;3.10;99.90;;;;;;5034913;28;20125;-73
2021/03/28 02:39:56;;;;;;;14.02;3.65;;;3.10;99.90;;;;;;5034842;28;20065;-74
2021/03/28 02:42:32;;;;;;;;;;;3.00;99.90;;;;;;5034701;28;20478;-73
2021/03/28 02:45:18;;;;;;;10.63;4.80;;;3.00;99.90;;;;;;5034043;28;19905;-72
2021/03/28 02:48:04;;;;;;;14.52;4.78;;;2.90;99.90;;;;;;5034983;28;20562;-72
2021/03/28 02:50:47;;;;;;;7.25;4.07;;;2.80;99.90;;;;;;5034228;28;20025;-73
2021/03/28 02:53:36;;;;;;;15.43;5.32;;;2.80;99.90;;;;;;5044146;28;20369;-72
2021/03/28 02:56:17;;;;;;;8.43;4.25;;;2.80;99.90;;;;;;5037596;28;20022;-72
2021/03/28 02:59:01;;;;;;;9.23;4.35;;;2.80;99.90;;;;;;5034816;28;20087;-73
2021/03/28 03:01:30;;;;;;;9.40;4.03;;;2.90;99.90;;;;;;5034380;28;20025;-73
2021/03/28 03:03:55;;;;;;;11.75;4.03;;;2.80;99.90;;;;;;5033800;28;20163;-74
2021/03/28 03:06:49;;;;;;;9.52;3.83;;;2.70;99.90;;;;;;5034319;28;20453;-75
2021/03/28 03:09:32;;;;;;;13.95;4.15;;;2.70;99.90;;;;;;5034024;28;20029;-73
2021/03/28 03:12:19;;;;;;;9.77;4.05;;;2.60;99.90;;;;;;5016736;28;20424;-76
2021/03/28 03:15:22;;;;;;;12.43;3.60;;;2.60;99.90;;;;;;5033999;28;20131;-74
2021/03/28 03:18:03;;;;;;;8.43;3.75;;;2.60;99.90;;;;;;5034483;28;20026;-74
2021/03/28 03:20:44;;;;;;;7.70;4.03;;;2.50;99.90;;;;;;5033760;28;20080;-73
2021/03/28 03:23:36;;;;;;;7.68;3.63;;;2.40;99.90;;;;;;5036417;28;20021;-73
2021/03/28 03:26:53;;;;;;;7.82;3.58;;;2.40;99.90;;;;;;5050282;28;20029;-72
2021/03/28 03:29:35;;;;;;;9.00;4.07;;;2.40;99.90;;;;;;4971084;28;20066;-72
2021/03/28 03:32:39;;;;;;;8.43;3.80;;;2.30;99.90;;;;;;5029995;28;20022;-71
2021/03/28 03:35:26;;;;;;;7.45;4.30;;;2.30;99.90;;;;;;5028285;28;20046;-73
2021/03/28 03:38:14;;;;;;;8.10;3.70;;;2.20;99.90;;;;;;5034504;28;20025;-72
2021/03/28 03:41:00;;;;;;;10.02;4.20;;;2.10;99.90;;;;;;5052548;28;20029;-72
2021/03/28 03:43:46;;;;;;;7.97;3.85;;;2.00;99.90;;;;;;5051543;28;20033;-72
2021/03/28 03:46:35;;;;;;;11.40;3.80;;;2.10;99.90;;;;;;5052524;28;20037;-73
2021/03/28 03:49:32;;;;;;;13.38;3.83;;;2.10;99.90;;;;;;5027128;28;20124;-73
2021/03/28 03:52:02;;;;;;;7.10;3.80;;;2.10;99.90;;;;;;5047923;28;20022;-72
2021/03/28 03:54:50;;;;;;;10.73;4.00;;;2.10;99.90;;;;;;5033692;28;20033;-73
2021/03/28 03:57:35;;;;;;;10.35;4.07;;;2.10;99.90;;;;;;5033576;28;20036;-73
2021/03/28 04:00:28;;;;;;;17.65;4.90;;;2.10;99.90;;;;;;5033156;28;20029;-72
2021/03/28 04:03:14;;;;;;;9.90;4.28;;;2.10;99.90;;;;;;5024700;28;20029;-72
2021/03/28 04:06:13;;;;;;;10.10;4.97;;;2.10;99.90;;;;;;5033935;28;20025;-73
2021/03/28 04:09:11;;;;;;;9.75;4.10;;;2.10;99.90;;;;;;5033072;28;20036;-71
2021/03/28 04:11:58;;;;;;;9.60;3.80;;;2.10;99.90;;;;;;5032114;28;20114;-73
2021/03/28 04:14:49;;;;;;;11.18;4.28;;;2.00;99.90;;;;;;5031806;28;20032;-73
2021/03/28 04:17:53;;;;;;;10.38;4.25;;;2.00;99.90;;;;;;5032857;28;20032;-74
2021/03/28 04:20:49;;;;;;;21.15;4.55;;;2.00;99.90;;;;;;5032596;28;20041;-72
2021/03/28 04:23:33;;;;;;;12.05;4.35;;;1.90;99.90;;;;;;5032110;28;20089;-72
2021/03/28 04:26:22;;;;;;;12.65;4.78;;;1.90;99.90;;;;;;5014750;28;20030;-72
2021/03/28 04:28:55;;;;;;;11.88;4.32;;;1.80;99.90;;;;;;5032111;28;20474;-72
2021/03/28 04:31:44;;;;;;;8.95;4.40;;;1.70;99.90;;;;;;5013956;28;20488;-72
2021/03/28 04:34:24;;;;;;;9.48;4.55;;;1.70;99.90;;;;;;4994180;28;20109;-71
2021/03/28 04:37:11;;;;;;;9.23;4.30;;;1.70;99.90;;;;;;5032150;28;20026;-74
2021/03/28 04:39:50;;;;;;;15.45;4.63;;;1.70;99.90;;;;;;5032142;28;20021;-72
2021/03/28 04:42:49;;;;;;;12.00;4.20;;;1.80;99.90;;;;;;5031858;28;20028;-74
2021/03/28 04:45:24;;;;;;;9.35;4.25;;;1.70;99.90;;;;;;5031809;28;20051;-74
2021/03/28 04:48:23;;;;;;;10.65;4.15;;;1.70;99.90;;;;;;5032254;28;20036;-74
2021/03/28 04:51:22;;;;;;;14.68;4.18;;;1.60;99.90;;;;;;5033538;28;20499;-72
2021/03/28 04:54:10;;;;;;;18.00;4.82;;;1.60;99.90;;;;;;5016371;28;20132;-72
2021/03/28 04:57:17;;;;;;;12.05;4.53;;;1.50;99.90;;;;;;5016446;28;20033;-72
2021/03/28 05:00:13;;;;;;;10.63;4.68;;;1.40;99.90;;;;;;5034306;28;20029;-73
2021/03/28 05:03:03;;;;;;;11.98;4.63;;;1.40;99.90;;;;;;5013994;28;20455;-73
2021/03/28 05:05:38;;;;;;;11.68;4.10;;;1.30;99.90;;;;;;5013976;28;20079;-72
2021/03/28 05:08:28;;;;;;;13.73;4.55;;;1.30;99.90;;;;;;5031758;28;20140;-72
2021/03/28 05:11:14;;;;;;;10.20;5.05;;;1.40;99.90;;;;;;5031823;28;20120;-73
2021/03/28 05:14:17;;;;;;;10.73;4.93;;;1.50;99.90;;;;;;5031034;28;20034;-72
2021/03/28 05:17:00;;;;;;;12.60;4.63;;;1.40;99.90;;;;;;5031540;28;20018;-72
2021/03/28 05:19:52;;;;;;;11.70;3.78;;;1.40;99.90;;;;;;5031529;28;20495;-72
2021/03/28 05:22:33;;;;;;;11.57;4.32;;;1.30;99.90;;;;;;5014165;28;20025;-72
2021/03/28 05:25:31;;;;;;;11.95;4.82;;;1.40;99.90;;;;;;5031173;28;20030;-73
2021/03/28 05:28:18;;;;;;;13.52;5.40;;;1.50;99.90;;;;;;5031477;28;20104;-73
2021/03/28 05:31:01;;;;;;;11.20;4.72;;;1.50;99.90;;;;;;5031541;28;20131;-72
2021/03/28 05:33:38;;;;;;;9.90;4.55;;;1.40;99.90;;;;;;5030785;28;20033;-72
2021/03/28 05:36:25;;;;;;;12.85;5.55;;;1.50;99.90;;;;;;5031746;28;20025;-73
2021/03/28 05:39:20;;;;;;;9.38;5.15;;;1.50;99.90;;;;;;5013800;28;20036;-72
2021/03/28 05:42:23;;;;;;;12.70;4.65;;;1.50;99.90;;;;;;4997598;28;20029;-72
2021/03/28 05:45:12;;;;;;;;;;;1.50;99.90;;;;;;5035315;28;20025;-71
2021/03/28 05:48:03;;;;;;;16.05;4.05;;;1.50;99.90;;;;;;5017556;28;19908;-75
2021/03/28 05:50:47;;;;;;;10.82;4.43;;;1.60;99.90;;;;;;5035284;28;20028;-74
2021/03/28 05:53:31;;;;;;;11.10;3.90;;;1.70;99.90;;;;;;5034957;28;20391;-74
2021/03/28 05:56:21;;;;;;;11.52;3.90;;;1.60;99.90;;;;;;5035035;28;20410;-71
2021/03/28 05:59:14;;;;;;;7.32;4.75;;;1.70;99.90;;;;;;5035046;28;20101;-72
2021/03/28 06:02:15;;;;;;;10.32;4.47;;;1.80;99.90;;;;;;5035634;28;20100;-72
2021/03/28 06:05:05;;;;;;;10.55;4.47;;;1.80;99.90;;;;;;4993652;28;20041;-73
2021/03/28 06:07:36;;;;;;;9.00;4.50;;;1.80;99.90;;;;;;5035485;28;20484;-73
2021/03/28 06:10:34;;;;;;;16.08;4.82;;;1.90;99.90;;;;;;5035461;28;20029;-73
2021/03/28 06:13:24;;;;;;;35.40;5.38;;;1.90;99.90;;;;;;4984135;28;20048;-72
2021/03/28 06:16:03;;;;;;;9.40;4.38;;;1.90;99.90;;;;;;5037759;28;20033;-73
2021/03/28 06:18:50;;;;;;;12.65;4.35;;;1.90;99.90;;;;;;5018392;28;20589;-72
2021/03/28 06:21:46;;;;;;;14.98;5.72;;;1.90;99.90;;;;;;5035106;28;20026;-73
2021/03/28 06:24:41;;;;;;;24.48;5.20;;;1.90;99.90;;;;;;5035108;28;20037;-73
2021/03/28 06:27:48;;;;;;;10.85;4.03;;;2.00;99.90;;;;;;5009497;28;20069;-71
2021/03/28 06:30:31;;;;;;;14.05;3.95;;;1.90;99.90;;;;;;5035994;28;20030;-73
2021/03/28 06:33:12;;;;;;;11.15;4.28;;;1.90;99.90;;;;;;5036940;28;20060;-72
2021/03/28 06:36:14;;;;;;;10.07;4.78;;;1.90;99.90;;;;;;5034621;28;20025;-72
2021/03/28 06:39:14;;;;;;;9.77;4.68;;;1.90;99.90;;;;;;5019911;28;20412;-70
2021/03/28 06:41:59;;;;;;;12.60;4.35;;;2.00;99.90;;;;;;5036628;28;20070;-72
2021/03/28 06:44:30;;;;;;;10.77;4.75;;;2.00;99.90;;;;;;5035488;28;20025;-72
2021/03/28 06:47:06;;;;;;;16.98;4.30;;;2.10;99.90;;;;;;5038139;28;20495;-75
2021/03/28 06:49:53;;;;;;;10.57;4.25;;;2.10;99.90;;;;;;5029861;28;20447;-73
2021/03/28 06:52:27;;;;;;;12.43;4.53;;;2.20;99.90;;;;;;5033431;28;20021;-71
2021/03/28 06:55:14;;;;;;;9.93;4.60;;;2.30;99.90;;;;;;5031473;28;20136;-72
2021/03/28 06:58:17;;;;;;;11.77;4.45;;;2.40;99.90;;;;;;5050259;28;20017;-72
2021/03/28 07:01:13;;;;;;;10.13;4.18;;;2.50;99.90;;;;;;5051404;28;20025;-72
2021/03/28 07:03:59;;;;;;;11.40;4.38;;;2.60;99.90;;;;;;5033959;28;20029;-72
2021/03/28 07:06:48;;;;;;;7.15;3.70;;;2.70;99.90;;;;;;5032657;28;20033;-73
2021/03/28 07:09:47;;;;;;;10.23;4.13;;;2.80;99.90;;;;;;4988769;28;20049;-72
2021/03/28 07:12:25;;;;;;;10.35;4.35;;;2.90;99.90;;;;;;5033062;28;20067;-71
2021/03/28 07:15:08;;;;;;;7.72;3.97;;;3.00;99.90;;;;;;5031471;28;20087;-73
2021/03/28 07:17:34;;;;;;;11.70;3.88;;;3.00;99.90;;;;;;5014296;28;20132;-73
2021/03/28 07:20:25;;;;;;;9.40;4.00;;;3.30;99.90;;;;;;5030739;28;20539;-72
2021/03/28 07:23:29;;;;;;;8.70;4.60;;;3.60;99.90;;;;;;5029790;28;20033;-73
2021/03/28 07:26:09;;;;;;;7.70;3.75;;;4.00;99.90;;;;;;5032847;28;20057;-74
2021/03/28 07:29:08;;;;;;;7.78;3.65;;;4.00;99.90;;;;;;5031384;28;20036;-73
2021/03/28 07:31:55;;;;;;;12.55;3.42;;;4.20;99.90;;;;;;5032112;28;20048;-74
2021/03/28 07:34:51;;;;;;;8.63;3.50;;;4.40;99.90;;;;;;5012613;28;20035;-76
2021/03/28 07:37:29;;;;;;;9.60;3.95;;;4.70;99.90;;;;;;5031942;28;20097;-74
2021/03/28 07:40:09;;;;;;;7.03;3.40;;;5.10;99.90;;;;;;5031499;28;20431;-73
2021/03/28 07:42:59;;;;;;;5.32;3.30;;;5.40;99.90;;;;;;5031218;28;20029;-73
2021/03/28 07:45:44;;;;;;;9.00;3.65;;;5.90;99.90;;;;;;5040200;28;20021;-74
2021/03/28 07:48:35;;;;;;;4.85;3.40;;;5.80;99.90;;;;;;5033818;28;20029;-74
2021/03/28 07:51:29;;;;;;;10.20;3.58;;;5.90;99.90;;;;;;5050902;28;20882;-74
2021/03/28 07:54:20;;;;;;;9.00;3.83;;;5.80;99.90;;;;;;5033505;28;20041;-74
2021/03/28 07:57:26;;;;;;;8.50;3.45;;;6.20;99.90;;;;;;5051025;28;20534;-72
2021/03/28 08:00:12;;;;;;;7.63;3.10;;;6.20;99.90;;;;;;5033103;28;20029;-72
2021/03/28 08:02:51;;;;;;;9.27;2.97;;;6.40;99.90;;;;;;5033207;28;20162;-71
2021/03/28 08:05:23;;;;;;;6.82;3.40;;;6.30;99.90;;;;;;5052056;28;20033;-72
2021/03/28 08:07:56;;;;;;;6.68;3.15;;;6.60;99.90;;;;;;5033864;28;20078;-72
2021/03/28 08:10:22;;;;;;;10.35;2.90;;;6.90;99.90;;;;;;5052911;28;20432;-71
2021/03/28 08:13:21;;;;;;;6.22;2.90;;;7.00;99.90;;;;;;5051973;28;20036;-72
2021/03/28 08:16:01;;;;;;;6.35;3.28;;;7.40;99.90;;;;;;5033225;28;20025;-73
2021/03/28 08:18:51;;;;;;;5.25;2.78;;;7.40;99.90;;;;;;5040809;28;20021;-73
2021/03/28 08:21:20;;;;;;;7.78;3.08;;;7.20;99.90;;;;;;5026633;28;20093;-73
2021/03/28 08:24:38;;;;;;;6.00;3.10;;;7.30;99.90;;;;;;5042836;28;20099;-72
2021/03/28 08:27:28;;;;;;;9.82;2.88;;;7.10;99.90;;;;;;4992201;28;20037;-72
2021/03/28 08:30:14;;;;;;;8.13;3.03;;;7.70;99.90;;;;;;5025323;28;20492;-72
2021/03/28 08:32:58;;;;;;;5.30;2.83;;;8.00;99.90;;;;;;5039346;28;20052;-73
2021/03/28 08:35:37;;;;;;;5.40;2.67;;;7.90;99.90;;;;;;5040268;28;20029;-72
2021/03/28 08:38:25;;;;;;;7.30;2.58;;;7.80;99.90;;;;;;5022760;28;20235;-73
2021/03/28 08:41:42;;;;;;;7.15;2.75;;;7.90;99.90;;;;;;5039586;28;20025;-73
2021/03/28 08:44:41;;;;;;;6.25;2.25;;;7.90;99.90;;;;;;4958927;29;20032;-72
2021/03/28 08:47:21;;;;;;;6.82;2.70;;;8.00;99.90;;;;;;5039642;28;20026;-72
2021/03/28 08:50:06;;;;;;;7.15;2.67;;;8.20;99.90;;;;;;5040721;28;20033;-73
2021/03/28 08:52:47;;;;;;;10.60;3.20;;;8.40;99.90;;;;;;5039473;28;20022;-72
2021/03/28 08:55:24;;;;;;;6.82;2.92;;;8.90;99.90;;;;;;5040516;28;20102;-71
2021/03/28 08:58:04;;;;;;;4.85;2.63;;;9.10;99.90;;;;;;5022776;28;20591;-71
2021/03/28 09:00:51;;;;;;;7.40;2.90;;;9.60;99.90;;;;;;5008477;28;20032;-75
2021/03/28 09:03:39;;;;;;;5.28;2.60;;;9.80;99.90;;;;;;5041058;28;20036;-75
2021/03/28 09:06:33;;;;;;;6.28;3.15;;;11.30;99.90;;;;;;5042765;28;20051;-75
2021/03/28 09:09:26;;;;;;;7.15;2.85;;;11.50;99.90;;;;;;5001113;28;20056;-73
2021/03/28 09:12:12;;;;;;;7.32;2.15;;;11.50;99.90;;;;;;5012652;28;20141;-74
2021/03/28 09:15:13;;;;;;;;;;;;;;;;;;;;;
2021/03/28 09:17:49;;;;;;;8.73;2.53;;;13.00;99.00;;;;;;5027458;28;20453;-74
2021/03/28 09:20:28;;;;;;;7.60;2.45;;;13.40;96.10;;;;;;5008188;28;20049;-73
2021/03/28 09:23:04;;;;;;;10.07;2.38;;;12.90;96.00;;;;;;5009234;28;20037;-71
2021/03/28 09:25:51;;;;;;;4.50;2.10;;;13.30;95.10;;;;;;5008191;28;20060;-73
2021/03/28 09:28:54;;;;;;;4.72;2.25;;;13.90;93.50;;;;;;5026037;28;20044;-72
2021/03/28 09:31:28;;;;;;;5.22;2.03;;;13.10;93.60;;;;;;5023762;28;20527;-74
2021/03/28 09:34:18;;;;;;;6.32;2.42;;;12.60;95.20;;;;;;5021713;28;20030;-77
2021/03/28 09:37:01;;;;;;;4.68;1.77;;;14.90;95.50;;;;;;5008359;28;20026;-74
2021/03/28 09:39:40;;;;;;;6.07;2.90;;;14.00;91.50;;;;;;5008063;28;20522;-73
2021/03/28 09:42:47;;;;;;;5.28;2.80;;;14.30;91.60;;;;;;4992562;28;20018;-74
2021/03/28 09:45:50;;;;;;;7.20;2.25;;;16.20;91.70;;;;;;5008390;28;20499;-74
2021/03/28 09:49:00;;;;;;;4.28;1.63;;;15.80;82.40;;;;;;5011980;28;20030;-75
2021/03/28 09:51:41;;;;;;;6.10;2.00;;;16.50;76.20;;;;;;5027668;28;20068;-76
2021/03/28 09:55:04;;;;;;;3.53;1.90;;;16.60;80.70;;;;;;5006790;28;20100;-75
2021/03/28 09:57:49;;;;;;;4.70;1.83;;;18.20;76.70;;;;;;4927625;29;20095;-74
2021/03/28 10:01:00;;;;;;;6.53;1.95;;;19.60;69.70;;;;;;5012849;28;20092;-77
2021/03/28 10:03:53;;;;;;;7.95;2.10;;;20.30;63.80;;;;;;5015024;28;20048;-75
2021/03/28 10:06:21;;;;;;;4.07;1.88;;;20.10;62.80;;;;;;5024897;28;20029;-75
2021/03/28 10:08:58;;;;;;;4.72;2.15;;;21.30;59.00;;;;;;5012282;28;20105;-73
2021/03/28 10:11:48;;;;;;;6.78;1.80;;;20.20;54.90;;;;;;5012376;28;20030;-73
2021/03/28 10:14:28;;;;;;;3.97;1.67;;;19.40;54.00;;;;;;5009308;28;20026;-73
2021/03/28 10:17:13;;;;;;;5.05;1.60;;;18.30;58.20;;;;;;5024722;28;20029;-73
2021/03/28 10:19:42;;;;;;;5.70;2.10;;;17.00;59.10;;;;;;5032868;28;20032;-73
2021/03/28 10:22:25;;;;;;;5.57;1.50;;;16.50;58.90;;;;;;5050855;28;20075;-73
2021/03/28 10:25:22;;;;;;;4.90;1.30;;;17.70;57.00;;;;;;5039511;28;20128;-73
2021/03/28 10:27:57;;;;;;;6.63;1.48;;;17.80;58.90;;;;;;5031963;28;20110;-72
2021/03/28 10:30:50;;;;;;;5.50;2.38;;;19.40;54.20;;;;;;5032253;28;20075;-73
2021/03/28 10:33:58;;;;;;;4.35;1.60;;;17.70;54.80;;;;;;4991720;28;20041;-73
2021/03/28 10:37:04;;;;;;;3.92;1.65;;;17.70;58.20;;;;;;4996911;28;20558;-72
2021/03/28 10:39:54;;;;;;;7.30;1.85;;;18.80;55.80;;;;;;5015155;28;20050;-71
2021/03/28 10:42:38;;;;;;;6.38;1.98;;;19.60;55.50;;;;;;4996617;28;20022;-72
2021/03/28 10:45:25;;;;;;;7.15;2.03;;;20.40;52.70;;;;;;5013766;28;20025;-72
2021/03/28 10:48:31;;;;;;;4.68;1.58;;;19.50;54.10;;;;;;5014566;28;20037;-72
2021/03/28 10:51:15;;;;;;;4.30;1.63;;;19.20;53.70;;;;;;5014346;28;20058;-73
2021/03/28 10:54:22;;;;;;;5.63;1.42;;;20.00;53.00;;;;;;4997953;28;20025;-72
2021/03/28 10:57:12;;;;;;;6.18;1.85;;;19.50;53.50;;;;;;5034187;28;20398;-73
2021/03/28 11:00:14;;;;;;;6.43;1.85;;;19.30;53.90;;;;;;5016853;28;20044;-73
2021/03/28 11:03:04;;;;;;;4.95;1.98;;;18.90;55.10;;;;;;5034813;28;20108;-73
2021/03/28 11:05:32;;;;;;;4.93;1.83;;;20.10;53.00;;;;;;5034677;28;20075;-72
2021/03/28 11:08:20;;;;;;;5.13;1.50;;;19.70;52.80;;;;;;5034917;28;20148;-72
2021/03/28 11:11:14;;;;;;;6.68;1.75;;;20.00;53.00;;;;;;5020394;28;20463;-73
2021/03/28 11:14:02;;;;;;;3.72;1.55;;;21.10;49.00;;;;;;4962687;28;20039;-74
2021/03/28 11:16:40;;;;;;;6.00;1.83;;;19.10;51.50;;;;;;5033634;28;20025;-72
2021/03/28 11:19:24;;;;;;;4.55;1.55;;;19.30;53.20;;;;;;5033707;28;20463;-73
2021/03/28 11:22:17;;;;;;;5.00;1.50;;;20.70;52.30;;;;;;5034027;28;20103;-74
2021/03/28 11:24:54;;;;;;;4.85;2.00;;;18.70;51.20;;;;;;5034580;28;20060;-72
2021/03/28 11:28:00;;;;;;;7.20;2.10;;;19.20;54.80;;;;;;5035856;28;20032;-71
2021/03/28 11:30:44;;;;;;;3.97;1.55;;;20.70;51.70;;;;;;5049865;28;20044;-72
2021/03/28 11:33:21;;;;;;;7.90;1.88;;;21.60;48.70;;;;;;5037616;28;20033;-73
2021/03/28 11:35:53;;;;;;;3.95;1.38;;;20.10;55.00;;;;;;5037818;28;20025;-71
2021/03/28 11:38:19;;;;;;;5.13;1.60;;;21.80;50.70;;;;;;5027974;28;20022;-73
2021/03/28 11:41:13;;;;;;;5.00;1.30;;;22.00;47.60;;;;;;5033187;28;20036;-72
2021/03/28 11:43:45;;;;;;;4.07;1.13;;;21.20;45.10;;;;;;5033349;28;20430;-72
2021/03/28 11:46:30;;;;;;;6.45;1.77;;;19.60;47.70;;;;;;5033332;28;20025;-70
2021/03/28 11:48:56;;;;;;;4.13;1.55;;;19.00;49.80;;;;;;5015239;28;20078;-71
2021/03/28 11:51:50;;;;;;;2.10;1.30;;;20.10;50.60;;;;;;5015058;28;20022;-72
2021/03/28 11:54:23;;;;;;;3.00;1.60;;;20.60;47.10;;;;;;5002797;28;20038;-71
2021/03/28 11:57:04;;;;;;;2.58;1.42;;;22.00;47.40;;;;;;5033238;28;20025;-71
2021/03/28 11:59:48;;;;;;;2.45;1.40;;;22.20;45.00;;;;;;5015338;28;20017;-76
2021/03/28 12:02:13;;;;;;;2.83;1.35;;;22.80;45.10;;;;;;5015130;28;20036;-75
2021/03/28 12:04:40;;;;;;;3.60;1.60;;;23.40;44.50;;;;;;5014011;28;20393;-72
2021/03/28 12:07:31;;;;;;;4.68;1.58;;;23.00;43.80;;;;;;5031295;28;20396;-72
2021/03/28 12:10:00;;;;;;;4.05;1.50;;;21.50;47.30;;;;;;5033402;28;20025;-74
2021/03/28 12:12:42;;;;;;;3.33;1.55;;;20.90;46.80;;;;;;5032923;28;20392;-74
2021/03/28 12:15:42;;;;;;;3.33;1.30;;;20.70;48.70;;;;;;5015082;28;20029;-73
2021/03/28 12:18:23;;;;;;;4.45;1.58;;;20.00;49.90;;;;;;5033037;28;20439;-74
2021/03/28 12:21:04;;;;;;;3.97;1.37;;;22.20;46.60;;;;;;5032213;28;20036;-72
2021/03/28 12:23:48;;;;;;;4.20;1.27;;;22.60;45.50;;;;;;5017031;28;20022;-73
2021/03/28 12:26:23;;;;;;;4.22;1.90;;;22.20;45.60;;;;;;5013297;28;20026;-74
2021/03/28 12:29:01;;;;;;;3.67;1.45;;;24.10;44.50;;;;;;4994675;28;20022;-72
2021/03/28 12:31:43;;;;;;;4.13;1.25;;;24.80;43.90;;;;;;4995075;28;20101;-73
2021/03/28 12:34:21;;;;;;;;;;;26.40;42.90;;;;;;5012196;28;20508;-73
2021/03/28 12:36:47;;;;;;;2.28;1.40;;;23.80;41.80;;;;;;5012024;28;19909;-70
2021/03/28 12:39:18;;;;;;;3.40;1.60;;;20.40;45.60;;;;;;5011961;28;20080;-71
2021/03/28 12:42:02;;;;;;;5.17;1.30;;;20.80;48.10;;;;;;5013199;28;20172;-73
2021/03/28 12:44:38;;;;;;;3.83;1.70;;;20.70;45.90;;;;;;5012419;28;20064;-71
2021/03/28 12:47:31;;;;;;;3.85;1.58;;;21.50;47.90;;;;;;5012941;28;20061;-70
2021/03/28 12:49:57;;;;;;;;;;;22.40;46.40;;;;;;5013187;28;20033;-70
2021/03/28 12:52:50;;;;;;;5.38;1.58;;;20.90;44.10;;;;;;5012110;28;19936;-71
2021/03/28 12:55:28;;;;;;;5.82;1.55;;;20.00;47.30;;;;;;5026756;28;20034;-72
2021/03/28 12:58:25;;;;;;;3.90;1.35;;;20.00;47.20;;;;;;5013435;28;20041;-71
2021/03/28 13:00:56;;;;;;;3.97;1.27;;;20.80;47.60;;;;;;4996810;28;20042;-71
2021/03/28 13:03:30;;;;;;;4.28;1.10;;;21.10;45.70;;;;;;5011694;28;20022;-70
2021/03/28 13:06:27;;;;;;;2.95;1.38;;;21.00;44.30;;;;;;4994454;28;20053;-72
2021/03/28 13:09:10;;;;;;;5.22;1.42;;;21.30;44.60;;;;;;5012216;28;20025;-72
2021/03/28 13:11:44;;;;;;;3.72;1.38;;;20.30;43.80;;;;;;5025273;28;20028;-71
2021/03/28 13:14:28;;;;;;;4.10;1.30;;;20.50;46.50;;;;;;5031117;28;20100;-71
2021/03/28 13:17:26;;;;;;;5.95;1.40;;;20.30;45.40;;;;;;5031744;28;20026;-70
2021/03/28 13:20:10;;;;;;;5.03;1.48;;;20.70;46.40;;;;;;4981386;28;20052;-73
2021/03/28 13:22:37;;;;;;;3.30;1.30;;;21.40;45.80;;;;;;5014075;28;20021;-70
2021/03/28 13:25:23;;;;;;;3.40;1.27;;;21.70;45.10;;;;;;5031556;28;20017;-71
2021/03/28 13:28:00;;;;;;;3.88;1.58;;;21.50;45.10;;;;;;5031615;28;20083;-71
2021/03/28 13:30:32;;;;;;;4.18;1.30;;;21.80;46.10;;;;;;5030720;28;20029;-71
2021/03/28 13:32:59;;;;;;;3.65;1.48;;;22.40;44.50;;;;;;5031349;28;20553;-72
2021/03/28 13:35:30;;;;;;;4.15;1.40;;;22.20;45.80;;;;;;5031584;28;20037;-72
2021/03/28 13:37:57;;;;;;;2.63;1.27;;;21.80;45.70;;;;;;5031264;28;20358;-72
2021/03/28 13:40:48;;;;;;;5.05;1.40;;;21.50;46.10;;;;;;5031503;28;20025;-72
2021/03/28 13:43:23;;;;;;;2.45;1.35;;;21.60;46.10;;;;;;5031117;28;20394;-72
2021/03/28 13:45:52;;;;;;;2.95;1.42;;;22.00;45.30;;;;;;5031650;28;20139;-72
2021/03/28 13:48:18;;;;;;;2.20;1.42;;;20.20;45.30;;;;;;5031884;28;20075;-71
2021/03/28 13:51:13;;;;;;;3.72;1.33;;;19.70;46.60;;;;;;5030283;28;20400;-73
2021/03/28 13:54:05;;;;;;;3.28;1.42;;;20.20;47.70;;;;;;5030620;28;20480;-73
2021/03/28 13:56:47;;;;;;;4.60;1.50;;;21.20;48.30;;;;;;5013953;28;20026;-71
2021/03/28 13:59:34;;;;;;;5.32;1.30;;;20.30;44.90;;;;;;5031200;28;20290;-73
2021/03/28 14:02:28;;;;;;;2.45;1.00;;;19.40;47.30;;;;;;5010583;28;20481;-72
2021/03/28 14:04:59;;;;;;;5.95;1.85;;;19.80;46.20;;;;;;5012022;28;20124;-72
2021/03/28 14:07:42;;;;;;;2.08;1.20;;;20.00;47.60;;;;;;5015041;28;20076;-73
2021/03/28 14:10:14;;;;;;;3.00;1.33;;;20.60;47.00;;;;;;5015280;28;20373;-73
2021/03/28 14:12:50;;;;;;;3.60;2.00;;;20.60;46.90;;;;;;5028697;28;20507;-72
2021/03/28 14:15:22;;;;;;;3.30;1.35;;;20.80;48.00;;;;;;5034881;28;20029;-74
2021/03/28 14:18:06;;;;;;;3.25;1.40;;;20.60;46.10;;;;;;5035188;28;20017;-71
2021/03/28 14:20:37;;;;;;;2.53;1.23;;;20.50;47.90;;;;;;5006018;28;20030;-71
2021/03/28 14:23:08;;;;;;;2.63;1.38;;;21.40;45.90;;;;;;5030762;28;20028;-74
2021/03/28 14:25:51;;;;;;;4.55;1.42;;;20.70;46.80;;;;;;5034669;28;20130;-72
2021/03/28 14:28:26;;;;;;;2.78;1.30;;;20.70;46.10;;;;;;5021698;28;20485;-72